首页
METAR-TAF:

METAR-TAF

机场 :

奥朗日, 法国

纬度: 44-08N, 经度: 004-50E, 海拔: 60米

当前天气观测

该预报发布于25分钟前的14:30 UTC
风速3节,风向西北
温度 15°C
湿度 55%
气压 1019 hPa
能见度10公里或以上
少量云层高于5000英尺

METAR: LFMO 071430Z AUTO 31003KT 9999 FEW050 15/06 Q1019 NOSIG

时间: 15:55 (14:55 UTC)

预报

该预报发布于55分钟前的14:00 UTC
预报有效从07日的 15点(UTC)到 08日的 15点(UTC)
风速2节,风向多变
能见度10公里或以上
1500米以下无云,无积雨云

TAF: LFMO 071400Z 0715/0815 VRB02KT CAVOK TX16/0813Z TN05/0806Z

超过4000个机场的气象观测和天气预报(METAR&TAF报告)。

可查询的气象台以黄色和红色小点在地图上表示。

将鼠标移到小点上方,可查看气象台名称。

然后点击查看天气观测和预报。

如需切换地图:点击带黑十字的绿色按钮放大地图;点击带横线的绿色按钮缩小地图;或者点击绿色箭头查看邻近地区的地图。


METAR-TAF: